Lester, Iowa
Current Conditions -  °F | °C
As of 10:55 PM on Wednesday 22 Oct 2014 (Local Time) from KLYV Reporting Station
Haze Haze  
Wind Chill: 55°   Ceiling: 400
Heat Index: 55°   Visibility: 3mi
Dew Point: 54°   Wind: 6mph
Humidity: 94%   Direction: 250°WSW
Pressure: 30.02"   Gusts: NA
Location:  43.44°N, 96.33°W
Report Text: KLYV 230355Z AUTO 25005KT 3SM BR OVC004 13/12 A3002 RMK AO2
Loading
Personal Weather Stations






























Interactive Weather Map
Tropical Storm Tracking
New forecast layout! Learn more

10-Day Weather Forecast

Advertisements
Track Severe Weather on mobile